Terminal Aerodrome Forecast
Issued by NWS

Home | Current Version | Previous Version | Text Only | Print | Product List | Glossary On
Versions: 1 2 3 4 5 6 7 8 9 10 11 12 13 14 15 16 17 18 19 20 21 22 23 24 25 26 27 28
336
FTAK31 PANC 030531
TAFAVD
TAF
PAVD 030531Z 0306/0406 VRB06G18KT P6SM BKN200
      TEMPO 0306/0310 04015G30KT
     FM031000 04015G30KT P6SM SCT150 BKN200
     FM031800 06020G40KT P6SM FEW070 BKN150
     FM040300 06028G50KT P6SM SCT070 BKN100
      AMD LTD TO CLD VIS AND WIND=

USA.gov is the U.S. government's official web portal to all federal, state and local government web resources and services.